Latest Weather Observations for Parawa West

IDS60801

Issued at 7:31 pm CDT Thursday 19 October 2017 (issued every 30 minutes, with the page automatically refreshed every 10 minutes)

About weather observations | Map of weather stations | Latest weather observations for SA | Other Formats
Station Details ID: 023875 Name: SECOND VALLEY FOREST AWS Lat: -35.57 Lon: 138.29 Height: 341.0 m
Data from the previous 72 hours. | See also: Recent months at Parawa West
Date/Time
CDT
Temp
°C
App
Temp
°C
Dew
Point
°C
Rel
Hum
%
Delta-T
°C
Wind Press
QNH
hPa
Press
MSL
hPa
Rain since
9am
mm
Dir  Spd
km/h
Gust
km/h
Spd
kts
Gust
kts
19/07:30pm 11.3 7.6 8.0 80 1.6 SSW 17 30 9 16 1025.3 1025.2 0.0
19/07:00pm 12.1 8.0 7.8 75 2.1 SSW 19 28 10 15 1025.0 1024.9 0.0
19/06:30pm 12.5 7.9 8.0 74 2.2 SSW 22 32 12 17 1024.7 1024.5 0.0
19/06:00pm 13.6 10.5 8.7 72 2.5 SSW 15 24 8 13 1024.4 1024.2 0.0
19/05:30pm 13.4 8.7 7.8 69 2.8 SSW 22 30 12 16 1024.1 1023.9 0.0
19/05:00pm 13.8 9.9 9.3 74 2.3 SSW 20 32 11 17 1023.8 1023.6 0.0
19/04:30pm 13.7 9.9 9.0 73 2.4 SSW 19 28 10 15 1023.6 1023.4 0.0
19/04:00pm 13.2 9.0 9.8 80 1.8 S 22 30 12 16 1023.2 1023.1 0.0
19/03:30pm 13.7 10.0 10.1 79 1.9 S 20 32 11 17 1023.1 1023.0 0.0
19/03:00pm 14.8 11.2 10.6 76 2.2 S 20 30 11 16 1022.9 1022.8 0.0
19/02:30pm 15.1 11.7 10.5 74 2.5 SSW 19 28 10 15 1023.0 1022.9 0.0
19/02:00pm 15.1 12.0 10.3 73 2.6 SSW 17 26 9 14 1022.8 1022.7 0.0
19/01:30pm 15.1 12.0 10.3 73 2.6 SSW 17 24 9 13 1022.8 1022.7 0.0
19/01:00pm 14.3 11.5 9.9 75 2.3 SSW 15 24 8 13 1022.7 1022.6 0.0
19/12:30pm 14.2 11.5 10.2 77 2.1 SSW 15 26 8 14 1022.4 1022.3 0.0
19/12:00pm 14.5 12.1 10.1 75 2.3 SW 13 22 7 12 1022.4 1022.3 0.0
19/11:30am 14.2 11.0 9.8 75 2.3 SSW 17 26 9 14 1022.4 1022.3 0.0
19/11:00am 15.0 12.8 12.1 83 1.6 SSW 15 24 8 13 1022.1 1021.9 0.0
19/10:30am 14.0 11.2 11.5 85 1.4 SW 17 26 9 14 1021.4 1021.2 0.0
19/10:00am 13.1 10.3 11.2 88 1.0 SW 17 24 9 13 1021.3 1021.1 0.0
19/09:30am 13.2 10.6 11.9 92 0.7 SSW 17 28 9 15 1020.5 1020.3 0.0
19/09:00am 13.0 9.4 11.7 92 0.7 SSW 22 30 12 16 1019.9 1019.8 4.0
19/08:30am 12.7 9.7 12.1 96 0.3 SSW 19 30 10 16 1019.4 1019.2 4.0
19/08:00am 12.3 8.7 11.8 97 0.3 SSW 22 33 12 18 1018.8 1018.6 4.0
19/07:30am 12.7 9.8 12.2 97 0.3 SSW 19 28 10 15 1018.2 1018.0 4.0
19/07:00am 12.9 10.0 12.4 97 0.3 SW 19 30 10 16 1017.7 1017.5 4.0
19/06:30am 15.3 15.2 15.0 98 0.2 W 9 15 5 8 1016.7 1016.5 4.0
19/06:00am 15.4 14.2 15.1 98 0.2 WNW 15 20 8 11 1016.0 1015.8 4.0
19/05:30am 15.1 13.3 14.5 96 0.3 NNW 17 24 9 13 1015.3 1015.1 4.0
19/05:00am 16.1 12.9 14.3 89 1.0 NW 24 37 13 20 1015.2 1015.0 4.0
19/04:30am 16.9 15.0 14.2 84 1.6 NW 17 33 9 18 1014.3 1014.0 4.0
19/04:00am 16.9 16.6 14.4 85 1.5 NW 9 19 5 10 1013.9 1013.7 4.0
19/03:30am 17.0 16.7 14.5 85 1.5 NNW 9 19 5 10 1014.0 1013.8 4.0
19/03:00am 16.6 16.8 14.8 89 1.1 NW 7 13 4 7 1014.3 1014.0 3.8
19/02:30am 16.3 16.8 15.0 92 0.8 NW 6 9 3 5 1013.8 1013.6 3.8
19/02:00am 16.3 17.5 14.8 91 0.9 SSW 2 6 1 3 1014.4 1014.1 3.4
19/01:30am 16.4 17.6 14.8 90 0.9 NNW 2 7 1 4 1015.5 1015.3 2.8
19/01:00am 16.8 16.3 14.8 88 1.2 N 11 15 6 8 1015.7 1015.5 2.6
19/12:30am 17.0 16.1 14.8 87 1.3 NW 13 20 7 11 1016.4 1016.2 1.6
19/12:00am 17.9 16.1 14.4 80 2.0 WNW 17 24 9 13 1016.5 1016.3 1.0
 
Date/Time
CDT
Temp
°C
App
Temp
°C
Dew
Point
°C
Rel
Hum
%
Delta-T
°C
Wind Press
QNH
hPa
Press
MSL
hPa
Rain since
9am
mm
Dir  Spd
km/h
Gust
km/h
Spd
kts
Gust
kts
18/11:30pm 18.8 17.3 14.1 74 2.7 W 15 26 8 14 1016.0 1015.8 0.2
18/11:00pm 19.5 17.9 13.9 70 3.3 W 15 22 8 12 1015.7 1015.5 0.2
18/10:30pm 18.9 17.8 14.4 75 2.6 WSW 13 22 7 12 1015.5 1015.3 0.2
18/10:00pm 17.7 16.4 14.8 83 1.7 W 15 22 8 12 1016.0 1015.8 0.0
18/09:30pm 19.5 17.6 14.3 72 3.1 WSW 17 24 9 13 1016.2 1016.0 0.0
18/09:00pm 19.5 16.6 14.1 71 3.2 W 22 35 12 19 1015.6 1015.4 0.0
18/08:30pm 21.2 19.3 14.1 64 4.2 WSW 17 30 9 16 1014.9 1014.7 0.0
18/08:00pm 20.7 20.9 14.8 69 3.5 W 7 15 4 8 1014.2 1013.9 0.0
18/07:30pm 24.4 20.5 13.3 50 6.6 WNW 26 50 14 27 1014.0 1013.8 0.0
18/07:24pm 23.2 22.2 13.4 54 5.8 NNW 11 50 6 27 1013.9 1013.7 0.0
18/07:00pm 25.0 25.9 12.9 47 7.1 CALM 0 0 0 0 1013.1 1012.9 0.0
18/06:30pm 24.9 26.9 16.1 58 5.4 CALM 0 0 0 0 1013.3 1013.1 0.0
18/06:00pm 26.1 28.0 15.8 53 6.4 CALM 0 2 0 1 1013.2 1013.0 0.0
18/05:30pm 26.7 27.2 12.7 42 8.3 NNW 2 6 1 3 1013.2 1013.0 0.0
18/05:00pm 26.8 26.0 12.8 42 8.3 NW 9 15 5 8 1013.3 1013.1 0.0
18/04:30pm 26.6 27.1 14.0 46 7.6 NNW 4 7 2 4 1013.4 1013.2 0.0
18/04:00pm 26.7 26.3 13.1 43 8.1 NW 7 15 4 8 1013.6 1013.4 0.0
18/03:30pm 27.7 27.1 13.6 42 8.5 NW 9 20 5 11 1013.8 1013.6 0.0
18/03:00pm 28.9 28.4 13.9 39 9.1 NW 9 17 5 9 1014.2 1013.9 0.0
18/02:30pm 27.7 25.6 12.5 39 9.0 NNW 15 22 8 12 1014.5 1014.2 0.0
18/02:00pm 28.1 27.8 14.3 42 8.4 NNW 9 20 5 11 1014.8 1014.6 0.0
18/01:30pm 27.1 26.8 14.5 46 7.7 NNW 9 17 5 9 1015.2 1015.0 0.0
18/01:00pm 26.4 26.1 13.2 44 7.8 NNW 7 19 4 10 1015.5 1015.3 0.0
18/12:30pm 26.9 26.9 14.3 46 7.6 NNW 7 17 4 9 1015.7 1015.5 0.0
18/12:00pm 26.7 25.7 13.4 43 7.9 NNW 11 24 6 13 1015.8 1015.6 0.0
18/11:30am 25.3 23.7 11.5 42 7.9 NNW 11 26 6 14 1016.0 1015.8 0.0
18/11:00am 24.6 23.3 12.5 46 7.1 NW 11 32 6 17 1016.0 1015.8 0.0
18/10:30am 23.5 21.8 11.2 46 7.0 N 11 30 6 16 1015.7 1015.5 0.0
18/10:00am 24.1 22.7 12.1 47 6.9 NNW 11 26 6 14 1015.5 1015.3 0.0
18/09:30am 23.5 22.9 12.2 49 6.5 ENE 7 20 4 11 1015.6 1015.4 0.0
18/09:00am 23.1 21.5 11.5 48 6.6 NNE 11 26 6 14 1015.6 1015.4 0.0
18/08:30am 22.9 22.1 11.6 49 6.4 NE 7 20 4 11 1015.6 1015.4 0.0
18/08:00am 22.5 21.6 11.3 49 6.3 NE 7 17 4 9 1015.6 1015.4 0.0
18/07:30am 21.7 20.8 10.5 49 6.2 NW 6 17 3 9 1015.5 1015.3 0.0
18/07:00am 21.8 20.6 10.3 48 6.4 NE 7 17 4 9 1015.2 1015.0 0.0
18/06:30am 21.5 20.2 10.0 48 6.3 NW 7 13 4 7 1014.7 1014.4 0.0
18/06:00am 21.9 20.6 10.1 47 6.5 W 7 24 4 13 1014.5 1014.2 0.0
18/05:30am 21.6 20.5 10.1 48 6.3 E 6 13 3 7 1014.3 1014.0 0.0
18/05:00am 21.0 20.0 10.2 50 5.9 NE 6 15 3 8 1014.0 1013.8 0.0
18/04:30am 22.0 20.7 9.9 46 6.7 NNE 7 17 4 9 1014.3 1014.0 0.0
18/04:00am 22.4 20.7 9.9 45 6.9 NNE 9 24 5 13 1014.3 1014.0 0.0
18/03:30am 22.1 20.8 9.9 46 6.7 NE 7 17 4 9 1014.4 1014.1 0.0
18/03:00am 21.5 20.9 10.3 49 6.2 NNE 4 11 2 6 1014.9 1014.7 0.0
18/02:30am 20.6 20.1 10.7 53 5.5 N 4 11 2 6 1015.3 1015.1 0.0
18/02:00am 20.6 20.5 10.7 53 5.5 ENE 2 6 1 3 1015.5 1015.3 0.0
18/01:30am 20.3 19.2 10.1 52 5.6 NE 6 13 3 7 1015.7 1015.5 0.0
18/01:00am 20.7 20.0 9.9 50 5.9 W 4 11 2 6 1015.9 1015.7 0.0
18/12:30am 20.1 19.5 8.8 48 6.0 NE 2 4 1 2 1016.1 1015.9 0.0
18/12:00am 21.0 18.6 8.6 45 6.6 NE 11 15 6 8 1016.4 1016.2 0.0
 
Date/Time
CDT
Temp
°C
App
Temp
°C
Dew
Point
°C
Rel
Hum
%
Delta-T
°C
Wind Press
QNH
hPa
Press
MSL
hPa
Rain since
9am
mm
Dir  Spd
km/h
Gust
km/h
Spd
kts
Gust
kts
17/11:30pm 21.6 18.5 7.4 40 7.4 NE 13 17 7 9 1016.5 1016.3 0.0
17/11:00pm 22.1 18.2 7.1 38 7.9 ENE 17 22 9 12 1016.5 1016.3 0.0
17/10:30pm 21.5 17.7 7.7 41 7.3 ENE 17 20 9 11 1016.6 1016.4 0.0
17/10:00pm 21.6 18.2 7.8 41 7.3 ENE 15 19 8 10 1016.7 1016.5 0.0
17/09:30pm 21.9 19.0 8.1 41 7.3 ENE 13 15 7 8 1016.6 1016.4 0.0
17/09:00pm 22.0 18.4 8.5 42 7.2 ENE 17 19 9 10 1016.3 1016.1 0.0
17/08:30pm 21.4 18.3 9.0 45 6.7 ENE 15 19 8 10 1016.1 1015.9 0.0
17/08:00pm 23.7 20.7 6.0 32 9.2 ENE 11 13 6 7 1015.9 1015.7 0.0
17/07:30pm 24.2 21.5 5.5 30 9.6 ENE 9 13 5 7 1015.8 1015.6 0.0
17/07:00pm 23.9 22.5 8.7 38 8.3 NE 6 9 3 5 1015.9 1015.7 0.0
17/06:30pm 25.8 25.0 8.3 33 9.5 NE 2 6 1 3 1015.9 1015.7 0.0
17/06:00pm 26.6 25.8 8.1 31 10.1 NNE 2 4 1 2 1015.9 1015.7 0.0
17/05:30pm 27.5 26.5 7.4 28 10.9 N 2 6 1 3 1015.8 1015.6 0.0
17/05:00pm 27.2 25.9 7.6 29 10.7 NNW 4 6 2 3 1015.7 1015.5 0.0
17/04:30pm 27.4 25.1 7.3 28 10.9 NW 9 17 5 9 1015.7 1015.5 0.0
17/04:00pm 27.4 25.0 6.8 27 11.1 NNW 9 19 5 10 1015.7 1015.5 0.0
17/03:30pm 27.4 25.4 8.8 31 10.3 NNW 9 20 5 11 1015.7 1015.5 0.0
17/03:00pm 26.9 23.1 7.4 29 10.5 NNW 17 28 9 15 1015.9 1015.7 0.0
17/02:30pm 26.9 23.3 6.9 28 10.7 NW 15 30 8 16 1016.2 1016.0 0.0
17/02:00pm 27.1 24.3 8.5 31 10.3 NW 13 28 7 15 1016.5 1016.3 0.0
17/01:30pm 26.8 24.4 8.7 32 10.0 NW 11 24 6 13 1016.6 1016.4 0.0
17/01:00pm 26.1 22.9 8.6 33 9.6 NNW 15 30 8 16 1016.7 1016.5 0.0
17/12:30pm 26.4 23.9 8.4 32 9.9 NNW 11 26 6 14 1016.9 1016.7 0.0
17/12:00pm 25.6 23.4 9.4 36 9.0 NNW 11 33 6 18 1017.1 1016.9 0.0
17/11:30am 25.3 23.8 10.4 39 8.4 NNW 9 26 5 14 1017.4 1017.2 0.0
17/11:00am 24.5 22.6 10.4 41 7.9 NNW 11 24 6 13 1017.5 1017.3 0.0
17/10:30am 24.4 22.7 9.9 40 8.1 NNW 9 22 5 12 1017.5 1017.3 0.0
17/10:00am 24.6 23.0 10.1 40 8.1 N 9 24 5 13 1017.4 1017.2 0.0
17/09:30am 24.2 22.9 10.1 41 7.9 E 7 20 4 11 1017.4 1017.2 0.0
17/09:00am 23.3 21.8 9.0 40 7.8 NE 7 15 4 8 1017.3 1017.1 0.0
17/08:30am 23.0 21.6 9.4 42 7.4 NE 7 17 4 9 1017.4 1017.2 0.0
17/08:00am 22.1 20.9 9.6 45 6.8 NE 6 17 3 9 1017.0 1016.8 0.0
17/07:30am 20.5 19.2 9.1 48 6.1 NE 6 11 3 6 1016.9 1016.7 0.0
17/07:00am 19.4 18.4 9.0 51 5.6 WSW 4 6 2 3 1016.7 1016.5 0.0
17/06:30am 19.0 17.9 8.4 50 5.6 NW 4 13 2 7 1016.5 1016.3 0.0
17/06:00am 19.6 18.5 8.6 49 5.8 ENE 4 15 2 8 1016.2 1016.0 0.0
17/05:30am 20.0 18.9 8.4 47 6.1 NE 4 7 2 4 1016.0 1015.8 0.0
17/05:00am 19.6 18.5 8.6 49 5.8 NE 4 11 2 6 1015.9 1015.7 0.0
17/04:30am 19.2 17.8 8.8 51 5.5 NNW 6 13 3 7 1015.9 1015.7 0.0
17/04:00am 20.3 19.2 8.6 47 6.2 N 4 13 2 7 1016.0 1015.8 0.0
17/03:30am 20.3 18.8 8.3 46 6.3 NNE 6 15 3 8 1016.1 1015.9 0.0
17/03:00am 20.2 18.5 8.2 46 6.3 NNE 7 11 4 6 1016.2 1016.0 0.0
17/02:30am 20.4 18.7 8.4 46 6.4 NE 7 17 4 9 1016.4 1016.2 0.0
17/02:00am 20.9 17.3 8.2 44 6.7 NE 17 22 9 12 1016.7 1016.5 0.0
17/01:30am 21.3 17.6 7.9 42 7.1 NE 17 22 9 12 1017.1 1016.9 0.0
17/01:00am 21.5 17.3 8.1 42 7.1 ENE 20 26 11 14 1017.6 1017.4 0.0
17/12:30am 20.8 16.8 8.4 45 6.6 ENE 19 24 10 13 1018.1 1017.9 0.0
17/12:00am 20.7 17.0 9.6 49 6.0 ENE 19 22 10 12 1018.4 1018.2 0.0
 
Date/Time
CDT
Temp
°C
App
Temp
°C
Dew
Point
°C
Rel
Hum
%
Delta-T
°C
Wind Press
QNH
hPa
Press
MSL
hPa
Rain since
9am
mm
Dir  Spd
km/h
Gust
km/h
Spd
kts
Gust
kts
16/11:30pm 20.3 15.8 10.1 52 5.6 E 24 32 13 17 1018.7 1018.5 0.0
16/11:00pm 20.9 16.1 8.9 46 6.4 E 24 32 13 17 1018.8 1018.6 0.0
16/10:30pm 20.3 15.9 8.9 48 6.1 E 22 30 12 16 1019.0 1018.8 0.0
16/10:00pm 20.3 16.0 9.2 49 6.0 E 22 28 12 15 1019.0 1018.8 0.0
16/09:30pm 20.7 16.2 8.7 46 6.4 E 22 28 12 15 1018.8 1018.6 0.0
16/09:00pm 21.3 16.0 8.6 44 6.8 E 26 32 14 17 1018.5 1018.3 0.0
16/08:30pm 19.9 16.2 9.5 51 5.6 E 19 24 10 13 1018.3 1018.1 0.0
16/08:00pm 20.6 17.2 10.4 52 5.6 E 19 24 10 13 1018.0 1017.8 0.0

Other Formats:

Comma delimited format used in spreadsheet applications
http://www.bom.gov.au/fwo/IDS60801/IDS60801.94811.axf

JavaScript Object Notation format (JSON) in row-major order
http://www.bom.gov.au/fwo/IDS60801/IDS60801.94811.json